sensor_id;sensor_type;location;lat;lon;timestamp;temperature;humidity
4107;DHT22;21906;50.812;7.132;2023-04-15T00:00:25;10.00;59.50
4107;DHT22;21906;50.812;7.132;2023-04-15T00:02:51;9.90;59.40
4107;DHT22;21906;50.812;7.132;2023-04-15T00:05:17;9.90;59.40
4107;DHT22;21906;50.812;7.132;2023-04-15T00:07:43;9.90;59.50
4107;DHT22;21906;50.812;7.132;2023-04-15T00:10:10;9.80;59.30
4107;DHT22;21906;50.812;7.132;2023-04-15T00:12:35;9.70;59.80
4107;DHT22;21906;50.812;7.132;2023-04-15T00:15:01;9.60;59.70
4107;DHT22;21906;50.812;7.132;2023-04-15T00:17:27;9.50;60.10
4107;DHT22;21906;50.812;7.132;2023-04-15T00:19:52;9.60;60.30
4107;DHT22;21906;50.812;7.132;2023-04-15T00:22:18;9.60;60.60
4107;DHT22;21906;50.812;7.132;2023-04-15T00:24:44;9.60;60.60
4107;DHT22;21906;50.812;7.132;2023-04-15T00:27:10;9.50;60.50
4107;DHT22;21906;50.812;7.132;2023-04-15T00:29:35;9.50;60.50
4107;DHT22;21906;50.812;7.132;2023-04-15T00:32:01;9.50;60.60
4107;DHT22;21906;50.812;7.132;2023-04-15T00:34:27;9.40;60.70
4107;DHT22;21906;50.812;7.132;2023-04-15T00:36:53;9.40;60.90
4107;DHT22;21906;50.812;7.132;2023-04-15T00:39:19;9.50;60.90
4107;DHT22;21906;50.812;7.132;2023-04-15T00:41:45;9.50;60.70
4107;DHT22;21906;50.812;7.132;2023-04-15T00:44:10;9.40;60.70
4107;DHT22;21906;50.812;7.132;2023-04-15T00:46:37;9.40;61.00
4107;DHT22;21906;50.812;7.132;2023-04-15T00:49:04;9.40;60.90
4107;DHT22;21906;50.812;7.132;2023-04-15T00:51:31;9.30;61.10
4107;DHT22;21906;50.812;7.132;2023-04-15T00:53:58;9.20;61.10
4107;DHT22;21906;50.812;7.132;2023-04-15T00:56:24;9.20;61.40
4107;DHT22;21906;50.812;7.132;2023-04-15T00:58:51;9.20;61.70
4107;DHT22;21906;50.812;7.132;2023-04-15T01:01:21;9.20;61.90
4107;DHT22;21906;50.812;7.132;2023-04-15T01:03:50;9.10;61.90
4107;DHT22;21906;50.812;7.132;2023-04-15T01:06:17;9.20;62.10
4107;DHT22;21906;50.812;7.132;2023-04-15T01:08:43;9.10;62.20
4107;DHT22;21906;50.812;7.132;2023-04-15T01:11:10;9.10;62.20
4107;DHT22;21906;50.812;7.132;2023-04-15T01:13:37;9.00;62.20
4107;DHT22;21906;50.812;7.132;2023-04-15T01:16:03;9.00;62.70
4107;DHT22;21906;50.812;7.132;2023-04-15T01:18:29;8.90;62.50
4107;DHT22;21906;50.812;7.132;2023-04-15T01:20:56;8.90;62.80
4107;DHT22;21906;50.812;7.132;2023-04-15T01:23:21;8.90;62.70
4107;DHT22;21906;50.812;7.132;2023-04-15T01:25:49;8.90;63.10
4107;DHT22;21906;50.812;7.132;2023-04-15T01:28:15;8.90;63.00
4107;DHT22;21906;50.812;7.132;2023-04-15T01:30:41;8.90;63.00
4107;DHT22;21906;50.812;7.132;2023-04-15T01:33:07;8.80;62.90
4107;DHT22;21906;50.812;7.132;2023-04-15T01:35:32;8.80;63.10
4107;DHT22;21906;50.812;7.132;2023-04-15T01:38:08;8.70;63.30
4107;DHT22;21906;50.812;7.132;2023-04-15T01:40:34;8.70;63.60
4107;DHT22;21906;50.812;7.132;2023-04-15T01:43:00;8.70;63.60
4107;DHT22;21906;50.812;7.132;2023-04-15T01:45:27;8.60;63.50
4107;DHT22;21906;50.812;7.132;2023-04-15T01:47:52;8.60;63.60
4107;DHT22;21906;50.812;7.132;2023-04-15T01:50:19;8.60;63.80
4107;DHT22;21906;50.812;7.132;2023-04-15T01:52:45;8.60;63.80
4107;DHT22;21906;50.812;7.132;2023-04-15T01:55:12;8.60;63.90
4107;DHT22;21906;50.812;7.132;2023-04-15T01:57:38;8.50;63.90
4107;DHT22;21906;50.812;7.132;2023-04-15T02:00:04;8.50;64.10
4107;DHT22;21906;50.812;7.132;2023-04-15T02:02:32;8.40;64.00
4107;DHT22;21906;50.812;7.132;2023-04-15T02:04:57;8.40;64.10
4107;DHT22;21906;50.812;7.132;2023-04-15T02:07:23;8.40;64.30
4107;DHT22;21906;50.812;7.132;2023-04-15T02:09:49;8.40;64.30
4107;DHT22;21906;50.812;7.132;2023-04-15T02:12:14;8.40;64.10
4107;DHT22;21906;50.812;7.132;2023-04-15T02:14:40;8.30;63.80
4107;DHT22;21906;50.812;7.132;2023-04-15T02:17:06;8.30;63.90
4107;DHT22;21906;50.812;7.132;2023-04-15T02:19:35;8.30;64.00
4107;DHT22;21906;50.812;7.132;2023-04-15T02:22:01;8.30;64.10
4107;DHT22;21906;50.812;7.132;2023-04-15T02:24:28;8.20;64.60
4107;DHT22;21906;50.812;7.132;2023-04-15T02:26:53;8.30;64.50
4107;DHT22;21906;50.812;7.132;2023-04-15T02:29:19;8.30;64.40
4107;DHT22;21906;50.812;7.132;2023-04-15T02:31:45;8.30;64.40
4107;DHT22;21906;50.812;7.132;2023-04-15T02:34:12;8.30;64.50
4107;DHT22;21906;50.812;7.132;2023-04-15T02:36:38;8.20;64.60
4107;DHT22;21906;50.812;7.132;2023-04-15T02:39:05;8.20;64.60
4107;DHT22;21906;50.812;7.132;2023-04-15T02:41:31;8.20;64.60
4107;DHT22;21906;50.812;7.132;2023-04-15T02:43:56;8.20;64.50
4107;DHT22;21906;50.812;7.132;2023-04-15T02:46:22;8.20;64.50
4107;DHT22;21906;50.812;7.132;2023-04-15T02:48:49;8.20;64.50
4107;DHT22;21906;50.812;7.132;2023-04-15T02:51:19;8.20;64.60
4107;DHT22;21906;50.812;7.132;2023-04-15T02:53:46;8.20;64.70
4107;DHT22;21906;50.812;7.132;2023-04-15T02:56:12;8.10;64.70
4107;DHT22;21906;50.812;7.132;2023-04-15T02:58:40;8.00;64.80
4107;DHT22;21906;50.812;7.132;2023-04-15T03:01:06;7.90;64.80
4107;DHT22;21906;50.812;7.132;2023-04-15T03:03:33;7.90;64.90
4107;DHT22;21906;50.812;7.132;2023-04-15T03:05:59;7.80;65.20
4107;DHT22;21906;50.812;7.132;2023-04-15T03:08:25;7.80;65.30
4107;DHT22;21906;50.812;7.132;2023-04-15T03:10:50;7.80;65.50
4107;DHT22;21906;50.812;7.132;2023-04-15T03:13:17;7.80;65.70
4107;DHT22;21906;50.812;7.132;2023-04-15T03:15:45;7.90;65.60
4107;DHT22;21906;50.812;7.132;2023-04-15T03:18:11;7.80;65.60
4107;DHT22;21906;50.812;7.132;2023-04-15T03:20:36;7.80;65.60
4107;DHT22;21906;50.812;7.132;2023-04-15T03:23:02;7.80;65.50
4107;DHT22;21906;50.812;7.132;2023-04-15T03:25:28;7.80;65.60
4107;DHT22;21906;50.812;7.132;2023-04-15T03:27:53;7.70;65.50
4107;DHT22;21906;50.812;7.132;2023-04-15T03:30:19;7.80;65.40
4107;DHT22;21906;50.812;7.132;2023-04-15T03:32:45;7.70;65.30
4107;DHT22;21906;50.812;7.132;2023-04-15T03:35:10;7.70;65.40
4107;DHT22;21906;50.812;7.132;2023-04-15T03:37:36;7.70;65.50
4107;DHT22;21906;50.812;7.132;2023-04-15T03:40:02;7.70;65.70
4107;DHT22;21906;50.812;7.132;2023-04-15T03:42:27;7.60;65.60
4107;DHT22;21906;50.812;7.132;2023-04-15T03:44:53;7.60;65.60
4107;DHT22;21906;50.812;7.132;2023-04-15T03:47:19;7.50;65.60
4107;DHT22;21906;50.812;7.132;2023-04-15T03:49:44;7.50;66.10
4107;DHT22;21906;50.812;7.132;2023-04-15T03:52:10;7.50;66.20
4107;DHT22;21906;50.812;7.132;2023-04-15T03:54:36;7.40;66.20
4107;DHT22;21906;50.812;7.132;2023-04-15T03:57:01;7.40;66.10
4107;DHT22;21906;50.812;7.132;2023-04-15T03:59:27;7.40;66.20
4107;DHT22;21906;50.812;7.132;2023-04-15T04:01:53;7.40;66.30
4107;DHT22;21906;50.812;7.132;2023-04-15T04:04:19;7.30;66.50
4107;DHT22;21906;50.812;7.132;2023-04-15T04:06:44;7.30;66.50
4107;DHT22;21906;50.812;7.132;2023-04-15T04:09:10;7.30;66.50
4107;DHT22;21906;50.812;7.132;2023-04-15T04:11:35;7.30;66.50
4107;DHT22;21906;50.812;7.132;2023-04-15T04:14:02;7.30;66.30
4107;DHT22;21906;50.812;7.132;2023-04-15T04:16:27;7.30;66.30
4107;DHT22;21906;50.812;7.132;2023-04-15T04:18:53;7.30;66.30
4107;DHT22;21906;50.812;7.132;2023-04-15T04:21:19;7.20;66.60
4107;DHT22;21906;50.812;7.132;2023-04-15T04:23:45;7.20;66.30
4107;DHT22;21906;50.812;7.132;2023-04-15T04:26:11;7.20;66.40
4107;DHT22;21906;50.812;7.132;2023-04-15T04:28:37;7.20;66.40
4107;DHT22;21906;50.812;7.132;2023-04-15T04:31:05;7.10;66.80
4107;DHT22;21906;50.812;7.132;2023-04-15T04:33:32;6.90;67.20
4107;DHT22;21906;50.812;7.132;2023-04-15T04:35:57;6.90;67.70
4107;DHT22;21906;50.812;7.132;2023-04-15T04:38:23;6.90;67.90
4107;DHT22;21906;50.812;7.132;2023-04-15T04:40:48;6.80;68.00
4107;DHT22;21906;50.812;7.132;2023-04-15T04:43:14;6.80;68.60
4107;DHT22;21906;50.812;7.132;2023-04-15T04:45:40;6.80;68.60
4107;DHT22;21906;50.812;7.132;2023-04-15T04:48:06;6.80;68.20
4107;DHT22;21906;50.812;7.132;2023-04-15T04:50:33;6.80;68.10
4107;DHT22;21906;50.812;7.132;2023-04-15T04:53:00;6.80;67.90
4107;DHT22;21906;50.812;7.132;2023-04-15T04:55:26;6.80;67.80
4107;DHT22;21906;50.812;7.132;2023-04-15T04:57:51;6.80;67.80
4107;DHT22;21906;50.812;7.132;2023-04-15T05:00:17;6.90;67.80
4107;DHT22;21906;50.812;7.132;2023-04-15T05:02:43;6.90;67.70
4107;DHT22;21906;50.812;7.132;2023-04-15T05:05:10;6.90;67.50
4107;DHT22;21906;50.812;7.132;2023-04-15T05:07:36;6.90;67.50
4107;DHT22;21906;50.812;7.132;2023-04-15T05:10:03;6.90;67.40
4107;DHT22;21906;50.812;7.132;2023-04-15T05:12:28;6.90;67.50
4107;DHT22;21906;50.812;7.132;2023-04-15T05:14:54;6.90;67.60
4107;DHT22;21906;50.812;7.132;2023-04-15T05:17:20;6.90;67.50
4107;DHT22;21906;50.812;7.132;2023-04-15T05:19:45;6.90;67.80
4107;DHT22;21906;50.812;7.132;2023-04-15T05:22:11;6.90;68.00
4107;DHT22;21906;50.812;7.132;2023-04-15T05:24:36;6.90;68.10
4107;DHT22;21906;50.812;7.132;2023-04-15T05:27:02;6.90;68.30
4107;DHT22;21906;50.812;7.132;2023-04-15T05:29:28;7.00;68.40
4107;DHT22;21906;50.812;7.132;2023-04-15T05:31:54;7.10;68.40
4107;DHT22;21906;50.812;7.132;2023-04-15T05:34:20;7.10;68.40
4107;DHT22;21906;50.812;7.132;2023-04-15T05:36:46;7.20;68.40
4107;DHT22;21906;50.812;7.132;2023-04-15T05:39:11;7.30;68.20
4107;DHT22;21906;50.812;7.132;2023-04-15T05:41:37;7.40;68.10
4107;DHT22;21906;50.812;7.132;2023-04-15T05:44:03;7.40;67.90
4107;DHT22;21906;50.812;7.132;2023-04-15T05:46:28;7.60;67.80
4107;DHT22;21906;50.812;7.132;2023-04-15T05:48:54;7.60;67.80
4107;DHT22;21906;50.812;7.132;2023-04-15T05:51:21;7.70;67.60
4107;DHT22;21906;50.812;7.132;2023-04-15T05:53:47;7.60;67.60
4107;DHT22;21906;50.812;7.132;2023-04-15T05:56:12;7.50;68.30
4107;DHT22;21906;50.812;7.132;2023-04-15T05:58:38;7.30;68.90
4107;DHT22;21906;50.812;7.132;2023-04-15T06:01:04;7.50;68.60
4107;DHT22;21906;50.812;7.132;2023-04-15T06:03:30;7.60;68.60
4107;DHT22;21906;50.812;7.132;2023-04-15T06:05:55;7.70;68.20
4107;DHT22;21906;50.812;7.132;2023-04-15T06:08:21;7.90;67.90
4107;DHT22;21906;50.812;7.132;2023-04-15T06:10:47;8.00;67.70
4107;DHT22;21906;50.812;7.132;2023-04-15T06:13:12;8.30;67.30
4107;DHT22;21906;50.812;7.132;2023-04-15T06:15:38;8.50;66.70
4107;DHT22;21906;50.812;7.132;2023-04-15T06:18:04;8.60;66.40
4107;DHT22;21906;50.812;7.132;2023-04-15T06:20:30;8.70;65.90
4107;DHT22;21906;50.812;7.132;2023-04-15T06:22:56;8.80;65.70
4107;DHT22;21906;50.812;7.132;2023-04-15T06:25:22;8.90;65.60
4107;DHT22;21906;50.812;7.132;2023-04-15T06:27:48;9.00;65.80
4107;DHT22;21906;50.812;7.132;2023-04-15T06:30:14;9.20;65.30
4107;DHT22;21906;50.812;7.132;2023-04-15T06:32:39;9.30;65.10
4107;DHT22;21906;50.812;7.132;2023-04-15T06:35:05;9.40;64.80
4107;DHT22;21906;50.812;7.132;2023-04-15T06:37:31;9.50;64.20
4107;DHT22;21906;50.812;7.132;2023-04-15T06:39:57;9.60;63.30
4107;DHT22;21906;50.812;7.132;2023-04-15T06:42:22;9.70;63.10
4107;DHT22;21906;50.812;7.132;2023-04-15T06:44:48;9.80;62.70
4107;DHT22;21906;50.812;7.132;2023-04-15T06:47:14;9.90;62.50
4107;DHT22;21906;50.812;7.132;2023-04-15T06:49:40;10.00;62.50
4107;DHT22;21906;50.812;7.132;2023-04-15T06:52:07;10.00;62.40
4107;DHT22;21906;50.812;7.132;2023-04-15T06:54:33;10.10;62.70
4107;DHT22;21906;50.812;7.132;2023-04-15T06:56:59;10.20;62.80
4107;DHT22;21906;50.812;7.132;2023-04-15T06:59:25;10.00;62.30
4107;DHT22;21906;50.812;7.132;2023-04-15T07:01:51;10.20;62.20
4107;DHT22;21906;50.812;7.132;2023-04-15T07:04:17;10.30;61.90
4107;DHT22;21906;50.812;7.132;2023-04-15T07:06:43;10.40;61.40
4107;DHT22;21906;50.812;7.132;2023-04-15T07:09:08;10.70;61.40
4107;DHT22;21906;50.812;7.132;2023-04-15T07:11:35;10.80;61.60
4107;DHT22;21906;50.812;7.132;2023-04-15T07:14:01;10.90;60.70
4107;DHT22;21906;50.812;7.132;2023-04-15T07:16:26;10.80;61.10
4107;DHT22;21906;50.812;7.132;2023-04-15T07:18:52;10.90;60.00
4107;DHT22;21906;50.812;7.132;2023-04-15T07:21:18;10.90;60.60
4107;DHT22;21906;50.812;7.132;2023-04-15T07:23:43;10.90;60.50
4107;DHT22;21906;50.812;7.132;2023-04-15T07:26:09;11.10;60.00
4107;DHT22;21906;50.812;7.132;2023-04-15T07:28:35;11.10;60.20
4107;DHT22;21906;50.812;7.132;2023-04-15T07:31:01;11.30;60.20
4107;DHT22;21906;50.812;7.132;2023-04-15T07:33:26;11.50;60.30
4107;DHT22;21906;50.812;7.132;2023-04-15T07:35:52;11.50;59.30
4107;DHT22;21906;50.812;7.132;2023-04-15T07:38:18;11.50;59.60
4107;DHT22;21906;50.812;7.132;2023-04-15T07:40:45;11.60;59.70
4107;DHT22;21906;50.812;7.132;2023-04-15T07:43:10;11.70;59.70
4107;DHT22;21906;50.812;7.132;2023-04-15T07:45:36;11.70;59.80
4107;DHT22;21906;50.812;7.132;2023-04-15T07:48:02;11.80;59.90
4107;DHT22;21906;50.812;7.132;2023-04-15T07:50:27;11.80;59.20
4107;DHT22;21906;50.812;7.132;2023-04-15T07:52:53;11.90;59.70
4107;DHT22;21906;50.812;7.132;2023-04-15T07:55:19;11.90;59.30
4107;DHT22;21906;50.812;7.132;2023-04-15T07:57:47;11.90;59.40
4107;DHT22;21906;50.812;7.132;2023-04-15T08:00:13;12.10;59.00
4107;DHT22;21906;50.812;7.132;2023-04-15T08:02:39;12.20;58.70
4107;DHT22;21906;50.812;7.132;2023-04-15T08:05:06;12.20;58.40
4107;DHT22;21906;50.812;7.132;2023-04-15T08:07:32;12.40;58.30
4107;DHT22;21906;50.812;7.132;2023-04-15T08:09:58;12.40;58.00
4107;DHT22;21906;50.812;7.132;2023-04-15T08:12:23;12.50;58.20
4107;DHT22;21906;50.812;7.132;2023-04-15T08:14:50;12.50;58.90
4107;DHT22;21906;50.812;7.132;2023-04-15T08:17:16;12.60;59.10
4107;DHT22;21906;50.812;7.132;2023-04-15T08:19:42;12.60;58.70
4107;DHT22;21906;50.812;7.132;2023-04-15T08:22:07;12.90;58.60
4107;DHT22;21906;50.812;7.132;2023-04-15T08:24:33;13.00;57.40
4107;DHT22;21906;50.812;7.132;2023-04-15T08:26:59;13.00;55.20
4107;DHT22;21906;50.812;7.132;2023-04-15T08:29:26;12.90;55.70
4107;DHT22;21906;50.812;7.132;2023-04-15T08:31:52;13.00;55.80
4107;DHT22;21906;50.812;7.132;2023-04-15T08:34:18;13.10;55.30
4107;DHT22;21906;50.812;7.132;2023-04-15T08:36:44;13.10;54.90
4107;DHT22;21906;50.812;7.132;2023-04-15T08:39:09;13.00;52.80
4107;DHT22;21906;50.812;7.132;2023-04-15T08:41:39;13.00;52.10
4107;DHT22;21906;50.812;7.132;2023-04-15T08:44:06;12.90;52.00
4107;DHT22;21906;50.812;7.132;2023-04-15T08:46:32;12.90;51.50
4107;DHT22;21906;50.812;7.132;2023-04-15T08:49:03;12.80;52.30
4107;DHT22;21906;50.812;7.132;2023-04-15T08:51:29;12.80;52.50
4107;DHT22;21906;50.812;7.132;2023-04-15T08:53:55;13.00;52.80
4107;DHT22;21906;50.812;7.132;2023-04-15T08:56:24;13.00;52.10
4107;DHT22;21906;50.812;7.132;2023-04-15T08:58:53;13.10;50.90
4107;DHT22;21906;50.812;7.132;2023-04-15T09:01:19;13.30;52.20
4107;DHT22;21906;50.812;7.132;2023-04-15T09:03:48;13.40;53.30
4107;DHT22;21906;50.812;7.132;2023-04-15T09:06:16;13.50;50.70
4107;DHT22;21906;50.812;7.132;2023-04-15T09:08:42;13.60;49.20
4107;DHT22;21906;50.812;7.132;2023-04-15T09:11:07;13.80;48.20
4107;DHT22;21906;50.812;7.132;2023-04-15T09:13:33;13.70;50.00
4107;DHT22;21906;50.812;7.132;2023-04-15T09:16:01;13.80;51.00
4107;DHT22;21906;50.812;7.132;2023-04-15T09:18:33;13.90;50.70
4107;DHT22;21906;50.812;7.132;2023-04-15T09:21:19;13.90;48.30
4107;DHT22;21906;50.812;7.132;2023-04-15T09:23:59;14.00;47.60
4107;DHT22;21906;50.812;7.132;2023-04-15T09:26:36;14.00;47.60
4107;DHT22;21906;50.812;7.132;2023-04-15T09:29:11;14.00;47.20
4107;DHT22;21906;50.812;7.132;2023-04-15T09:31:40;14.00;48.10
4107;DHT22;21906;50.812;7.132;2023-04-15T09:34:07;14.20;48.40
4107;DHT22;21906;50.812;7.132;2023-04-15T09:36:59;14.30;47.90
4107;DHT22;21906;50.812;7.132;2023-04-15T09:39:25;14.40;49.20
4107;DHT22;21906;50.812;7.132;2023-04-15T09:42:04;14.40;45.10
4107;DHT22;21906;50.812;7.132;2023-04-15T09:44:31;14.50;46.90
4107;DHT22;21906;50.812;7.132;2023-04-15T09:46:56;14.60;48.70
4107;DHT22;21906;50.812;7.132;2023-04-15T09:49:22;14.60;47.40
4107;DHT22;21906;50.812;7.132;2023-04-15T09:51:48;14.70;45.30
4107;DHT22;21906;50.812;7.132;2023-04-15T09:54:18;14.60;44.20
4107;DHT22;21906;50.812;7.132;2023-04-15T09:56:45;14.60;45.40
4107;DHT22;21906;50.812;7.132;2023-04-15T09:59:11;14.60;46.30
4107;DHT22;21906;50.812;7.132;2023-04-15T10:01:37;14.70;48.30
4107;DHT22;21906;50.812;7.132;2023-04-15T10:04:04;14.70;46.90
4107;DHT22;21906;50.812;7.132;2023-04-15T10:06:30;14.70;47.30
4107;DHT22;21906;50.812;7.132;2023-04-15T10:08:59;14.90;47.90
4107;DHT22;21906;50.812;7.132;2023-04-15T10:11:28;14.90;48.20
4107;DHT22;21906;50.812;7.132;2023-04-15T10:13:54;15.10;48.10
4107;DHT22;21906;50.812;7.132;2023-04-15T10:16:20;15.10;47.40
4107;DHT22;21906;50.812;7.132;2023-04-15T10:18:53;15.20;48.60
4107;DHT22;21906;50.812;7.132;2023-04-15T10:21:20;15.20;46.10
4107;DHT22;21906;50.812;7.132;2023-04-15T10:23:47;15.30;46.30
4107;DHT22;21906;50.812;7.132;2023-04-15T10:26:13;15.10;46.40
4107;DHT22;21906;50.812;7.132;2023-04-15T10:28:43;15.30;48.80
4107;DHT22;21906;50.812;7.132;2023-04-15T10:31:11;15.30;47.20
4107;DHT22;21906;50.812;7.132;2023-04-15T10:33:41;15.10;47.30
4107;DHT22;21906;50.812;7.132;2023-04-15T10:36:09;15.20;48.10
4107;DHT22;21906;50.812;7.132;2023-04-15T10:38:39;15.20;46.20
4107;DHT22;21906;50.812;7.132;2023-04-15T10:41:17;15.30;47.00
4107;DHT22;21906;50.812;7.132;2023-04-15T10:43:59;15.50;46.70
4107;DHT22;21906;50.812;7.132;2023-04-15T10:46:41;15.60;47.50
4107;DHT22;21906;50.812;7.132;2023-04-15T10:49:16;15.80;47.60
4107;DHT22;21906;50.812;7.132;2023-04-15T10:51:44;15.60;46.80
4107;DHT22;21906;50.812;7.132;2023-04-15T10:54:15;15.50;47.80
4107;DHT22;21906;50.812;7.132;2023-04-15T10:56:44;15.70;46.70
4107;DHT22;21906;50.812;7.132;2023-04-15T10:59:10;15.60;47.10
4107;DHT22;21906;50.812;7.132;2023-04-15T11:01:53;15.50;47.60
4107;DHT22;21906;50.812;7.132;2023-04-15T11:12:51;15.30;51.20
4107;DHT22;21906;50.812;7.132;2023-04-15T11:15:34;15.30;49.10
4107;DHT22;21906;50.812;7.132;2023-04-15T11:18:24;15.30;49.60
4107;DHT22;21906;50.812;7.132;2023-04-15T11:20:55;15.20;49.40
4107;DHT22;21906;50.812;7.132;2023-04-15T11:23:31;15.00;49.70
4107;DHT22;21906;50.812;7.132;2023-04-15T11:25:59;15.00;50.90
4107;DHT22;21906;50.812;7.132;2023-04-15T11:28:26;15.10;50.70
4107;DHT22;21906;50.812;7.132;2023-04-15T11:30:53;15.30;50.40
4107;DHT22;21906;50.812;7.132;2023-04-15T11:33:20;15.40;49.80
4107;DHT22;21906;50.812;7.132;2023-04-15T11:35:47;15.30;50.30
4107;DHT22;21906;50.812;7.132;2023-04-15T11:38:14;15.30;49.50
4107;DHT22;21906;50.812;7.132;2023-04-15T11:40:41;15.30;50.10
4107;DHT22;21906;50.812;7.132;2023-04-15T11:43:10;14.90;50.50
4107;DHT22;21906;50.812;7.132;2023-04-15T11:45:37;14.90;52.20
4107;DHT22;21906;50.812;7.132;2023-04-15T11:48:08;14.60;51.20
4107;DHT22;21906;50.812;7.132;2023-04-15T11:50:35;14.70;51.70
4107;DHT22;21906;50.812;7.132;2023-04-15T11:53:05;14.70;52.00
4107;DHT22;21906;50.812;7.132;2023-04-15T11:55:43;14.80;52.60
4107;DHT22;21906;50.812;7.132;2023-04-15T11:58:16;14.90;53.10
4107;DHT22;21906;50.812;7.132;2023-04-15T12:01:00;14.80;52.90
4107;DHT22;21906;50.812;7.132;2023-04-15T12:03:44;15.00;52.90
4107;DHT22;21906;50.812;7.132;2023-04-15T12:06:20;15.00;52.40
4107;DHT22;21906;50.812;7.132;2023-04-15T12:09:13;15.00;51.90
4107;DHT22;21906;50.812;7.132;2023-04-15T12:11:49;14.90;51.60
4107;DHT22;21906;50.812;7.132;2023-04-15T12:14:31;14.70;52.10
4107;DHT22;21906;50.812;7.132;2023-04-15T12:16:59;14.60;52.90
4107;DHT22;21906;50.812;7.132;2023-04-15T12:19:28;14.30;54.00
4107;DHT22;21906;50.812;7.132;2023-04-15T12:22:02;14.10;54.80
4107;DHT22;21906;50.812;7.132;2023-04-15T12:24:34;13.80;55.70
4107;DHT22;21906;50.812;7.132;2023-04-15T12:27:02;13.70;55.60
4107;DHT22;21906;50.812;7.132;2023-04-15T12:29:29;13.70;56.10
4107;DHT22;21906;50.812;7.132;2023-04-15T12:31:57;13.70;56.80
4107;DHT22;21906;50.812;7.132;2023-04-15T12:34:34;13.60;56.20
4107;DHT22;21906;50.812;7.132;2023-04-15T12:37:03;13.50;56.30
4107;DHT22;21906;50.812;7.132;2023-04-15T12:39:37;13.40;56.50
4107;DHT22;21906;50.812;7.132;2023-04-15T12:42:04;13.30;57.40
4107;DHT22;21906;50.812;7.132;2023-04-15T12:44:29;13.30;57.90
4107;DHT22;21906;50.812;7.132;2023-04-15T12:46:55;13.20;57.20
4107;DHT22;21906;50.812;7.132;2023-04-15T12:49:22;13.10;57.90
4107;DHT22;21906;50.812;7.132;2023-04-15T12:51:49;13.00;58.60
4107;DHT22;21906;50.812;7.132;2023-04-15T12:54:16;12.90;59.50
4107;DHT22;21906;50.812;7.132;2023-04-15T12:56:42;13.00;59.80
4107;DHT22;21906;50.812;7.132;2023-04-15T12:59:08;13.10;58.80
4107;DHT22;21906;50.812;7.132;2023-04-15T13:01:34;13.00;59.20
4107;DHT22;21906;50.812;7.132;2023-04-15T13:04:00;13.00;59.00
4107;DHT22;21906;50.812;7.132;2023-04-15T13:06:26;13.10;59.50
4107;DHT22;21906;50.812;7.132;2023-04-15T13:08:53;13.00;59.40
4107;DHT22;21906;50.812;7.132;2023-04-15T13:11:21;13.00;59.70
4107;DHT22;21906;50.812;7.132;2023-04-15T13:13:46;13.10;60.30
4107;DHT22;21906;50.812;7.132;2023-04-15T13:16:12;12.90;60.30
4107;DHT22;21906;50.812;7.132;2023-04-15T13:18:38;12.90;61.20
4107;DHT22;21906;50.812;7.132;2023-04-15T13:21:03;12.90;61.10
4107;DHT22;21906;50.812;7.132;2023-04-15T13:23:32;12.90;60.90
4107;DHT22;21906;50.812;7.132;2023-04-15T13:25:57;12.90;61.40
4107;DHT22;21906;50.812;7.132;2023-04-15T13:28:23;12.80;61.40
4107;DHT22;21906;50.812;7.132;2023-04-15T13:30:49;12.90;61.80
4107;DHT22;21906;50.812;7.132;2023-04-15T13:33:16;12.80;62.40
4107;DHT22;21906;50.812;7.132;2023-04-15T13:35:42;12.60;63.40
4107;DHT22;21906;50.812;7.132;2023-04-15T13:38:07;12.50;63.90
4107;DHT22;21906;50.812;7.132;2023-04-15T13:40:33;12.50;64.10
4107;DHT22;21906;50.812;7.132;2023-04-15T13:42:59;12.50;64.30
4107;DHT22;21906;50.812;7.132;2023-04-15T13:45:25;12.50;63.40
4107;DHT22;21906;50.812;7.132;2023-04-15T13:47:51;12.40;63.60
4107;DHT22;21906;50.812;7.132;2023-04-15T13:50:17;12.40;64.70
4107;DHT22;21906;50.812;7.132;2023-04-15T13:52:43;12.40;64.80
4107;DHT22;21906;50.812;7.132;2023-04-15T13:55:09;12.30;65.00
4107;DHT22;21906;50.812;7.132;2023-04-15T13:57:35;12.30;64.90
4107;DHT22;21906;50.812;7.132;2023-04-15T14:00:01;12.30;65.10
4107;DHT22;21906;50.812;7.132;2023-04-15T14:02:28;12.30;64.80
4107;DHT22;21906;50.812;7.132;2023-04-15T14:04:54;12.40;65.90
4107;DHT22;21906;50.812;7.132;2023-04-15T14:07:20;12.40;66.30
4107;DHT22;21906;50.812;7.132;2023-04-15T14:09:45;12.40;67.00
4107;DHT22;21906;50.812;7.132;2023-04-15T14:12:12;12.40;66.50
4107;DHT22;21906;50.812;7.132;2023-04-15T14:14:38;12.40;66.50
4107;DHT22;21906;50.812;7.132;2023-04-15T14:17:04;12.40;65.50
4107;DHT22;21906;50.812;7.132;2023-04-15T14:19:30;12.50;65.80
4107;DHT22;21906;50.812;7.132;2023-04-15T14:21:56;12.60;66.30
4107;DHT22;21906;50.812;7.132;2023-04-15T14:24:22;12.80;65.70
4107;DHT22;21906;50.812;7.132;2023-04-15T14:26:47;12.80;65.30
4107;DHT22;21906;50.812;7.132;2023-04-15T14:29:13;12.70;65.30
4107;DHT22;21906;50.812;7.132;2023-04-15T14:31:39;12.70;66.30
4107;DHT22;21906;50.812;7.132;2023-04-15T14:34:04;12.50;66.30
4107;DHT22;21906;50.812;7.132;2023-04-15T14:36:30;12.50;66.50
4107;DHT22;21906;50.812;7.132;2023-04-15T14:38:56;12.50;67.70
4107;DHT22;21906;50.812;7.132;2023-04-15T14:41:22;12.40;66.10
4107;DHT22;21906;50.812;7.132;2023-04-15T14:43:48;12.40;66.40
4107;DHT22;21906;50.812;7.132;2023-04-15T14:46:14;12.50;67.50
4107;DHT22;21906;50.812;7.132;2023-04-15T14:48:40;12.50;67.10
4107;DHT22;21906;50.812;7.132;2023-04-15T14:51:06;12.60;66.90
4107;DHT22;21906;50.812;7.132;2023-04-15T14:53:31;12.60;66.90
4107;DHT22;21906;50.812;7.132;2023-04-15T14:55:57;12.40;66.10
4107;DHT22;21906;50.812;7.132;2023-04-15T14:58:23;12.40;66.20
4107;DHT22;21906;50.812;7.132;2023-04-15T15:00:49;12.40;68.40
4107;DHT22;21906;50.812;7.132;2023-04-15T15:03:14;12.50;67.30
4107;DHT22;21906;50.812;7.132;2023-04-15T15:05:41;12.40;67.60
4107;DHT22;21906;50.812;7.132;2023-04-15T15:08:07;12.40;67.40
4107;DHT22;21906;50.812;7.132;2023-04-15T15:10:34;12.30;68.00
4107;DHT22;21906;50.812;7.132;2023-04-15T15:13:02;12.40;68.70
4107;DHT22;21906;50.812;7.132;2023-04-15T15:15:28;12.40;68.30
4107;DHT22;21906;50.812;7.132;2023-04-15T15:17:53;12.40;68.40
4107;DHT22;21906;50.812;7.132;2023-04-15T15:20:19;12.40;69.20
4107;DHT22;21906;50.812;7.132;2023-04-15T15:22:45;12.50;69.60
4107;DHT22;21906;50.812;7.132;2023-04-15T15:25:10;12.40;69.30
4107;DHT22;21906;50.812;7.132;2023-04-15T15:27:36;12.40;69.80
4107;DHT22;21906;50.812;7.132;2023-04-15T15:30:02;12.30;70.50
4107;DHT22;21906;50.812;7.132;2023-04-15T15:32:28;12.20;70.70
4107;DHT22;21906;50.812;7.132;2023-04-15T15:34:54;12.20;70.80
4107;DHT22;21906;50.812;7.132;2023-04-15T15:37:19;12.10;71.00
4107;DHT22;21906;50.812;7.132;2023-04-15T15:39:46;11.90;71.50
4107;DHT22;21906;50.812;7.132;2023-04-15T15:42:12;11.90;72.50
4107;DHT22;21906;50.812;7.132;2023-04-15T15:44:38;11.90;72.60
4107;DHT22;21906;50.812;7.132;2023-04-15T15:47:04;11.90;72.70
4107;DHT22;21906;50.812;7.132;2023-04-15T15:49:30;11.90;72.50
4107;DHT22;21906;50.812;7.132;2023-04-15T15:51:56;11.90;72.40
4107;DHT22;21906;50.812;7.132;2023-04-15T15:54:21;11.90;72.60
4107;DHT22;21906;50.812;7.132;2023-04-15T15:56:47;11.90;73.00
4107;DHT22;21906;50.812;7.132;2023-04-15T15:59:13;12.00;73.20